createdAt,value
2019-03-22T09:52:35.726Z,55.00
2019-03-22T09:57:28.794Z,55.50
2019-03-22T10:02:21.754Z,57.40
2019-03-22T10:07:14.892Z,58.10
2019-03-22T10:12:10.798Z,57.70
2019-03-22T10:17:02.670Z,57.00
2019-03-22T10:21:55.662Z,57.30
2019-03-22T10:26:48.484Z,56.50
2019-03-22T10:31:41.250Z,54.90
2019-03-22T10:36:33.640Z,54.30
2019-03-22T10:41:26.319Z,54.60
2019-03-22T10:46:18.631Z,53.90
2019-03-22T10:51:11.306Z,52.90
2019-03-22T10:56:03.982Z,52.90
2019-03-22T11:00:57.162Z,51.70
2019-03-22T11:05:49.657Z,50.80
2019-03-22T11:10:42.102Z,48.90
2019-03-22T11:15:34.742Z,48.50
2019-03-22T11:20:27.260Z,47.50
2019-03-22T11:25:20.214Z,47.70
2019-03-22T11:30:12.549Z,47.20
2019-03-22T11:35:05.135Z,47.00
2019-03-22T11:39:57.938Z,47.00
2019-03-22T11:44:50.480Z,43.70
2019-03-22T11:49:42.833Z,42.30
2019-03-22T11:54:35.240Z,42.40
2019-03-22T11:59:27.964Z,42.10
2019-03-22T12:04:20.663Z,41.90
2019-03-22T12:09:13.080Z,41.70
2019-03-22T12:14:05.416Z,41.40
2019-03-22T12:18:58.200Z,41.30
2019-03-22T12:23:50.644Z,41.90
2019-03-22T12:28:43.204Z,40.40
2019-03-22T12:33:35.746Z,40.60
2019-03-22T12:38:28.173Z,40.70
2019-03-22T12:43:20.626Z,40.90
2019-03-22T12:48:13.038Z,41.00
2019-03-22T12:53:05.688Z,41.30
2019-03-22T12:58:00.278Z,40.90
2019-03-22T13:02:52.159Z,40.90
2019-03-22T13:07:44.683Z,41.80
2019-03-22T13:12:37.037Z,41.50
2019-03-22T13:17:29.456Z,42.00
2019-03-22T13:22:21.676Z,41.50
2019-03-22T13:27:14.160Z,41.50
2019-03-22T13:32:06.618Z,41.80
2019-03-22T13:36:59.163Z,42.20
2019-03-22T13:41:51.853Z,41.70
2019-03-22T13:46:44.206Z,41.90
2019-03-22T13:51:36.871Z,42.40
2019-03-22T13:56:29.305Z,42.90
2019-03-22T14:01:21.895Z,43.20
2019-03-22T14:06:14.345Z,43.00
2019-03-22T14:11:06.941Z,43.50
2019-03-22T14:15:59.242Z,41.90
2019-03-22T14:20:52.467Z,42.80
2019-03-22T14:25:44.906Z,42.80
2019-03-22T14:30:37.701Z,41.10
2019-03-22T14:35:30.367Z,40.10
2019-03-22T14:40:23.078Z,39.80
2019-03-22T14:45:15.534Z,38.20
2019-03-22T14:50:07.913Z,37.40
2019-03-22T14:55:00.842Z,37.80
2019-03-22T15:00:00.302Z,36.80
2019-03-22T15:04:50.767Z,36.60
2019-03-22T15:09:42.679Z,36.80
2019-03-22T15:14:34.604Z,36.80
2019-03-22T15:19:26.709Z,36.20
2019-03-22T15:24:18.585Z,36.50
2019-03-22T15:29:11.147Z,36.60
2019-03-22T15:34:05.930Z,36.80
2019-03-22T15:38:58.276Z,36.80
2019-03-22T15:43:50.604Z,37.50
2019-03-22T15:48:42.970Z,36.20
2019-03-22T15:53:35.293Z,35.50
2019-03-22T15:58:27.687Z,35.90
2019-03-22T16:03:19.911Z,36.20
2019-03-22T16:08:12.123Z,36.60
2019-03-22T16:13:04.497Z,36.30
2019-03-22T16:17:56.918Z,36.90
2019-03-22T16:22:49.372Z,37.20
2019-03-22T16:27:43.722Z,37.40
2019-03-22T16:32:35.513Z,38.20
2019-03-22T16:37:27.866Z,38.50
2019-03-22T16:42:20.112Z,38.90
2019-03-22T16:47:12.236Z,39.10
2019-03-22T16:52:04.602Z,39.40
2019-03-22T16:56:56.773Z,39.70
2019-03-22T17:01:49.158Z,39.90
2019-03-22T17:06:41.492Z,40.10
2019-03-22T17:11:33.785Z,39.70
2019-03-22T17:16:26.244Z,39.90
2019-03-22T17:21:18.758Z,39.60
2019-03-22T17:26:11.111Z,39.80
2019-03-22T17:31:03.379Z,39.50
2019-03-22T17:35:55.677Z,39.50
2019-03-22T17:40:47.974Z,39.40
2019-03-22T17:45:40.262Z,39.60
2019-03-22T17:50:32.342Z,39.70
2019-03-22T17:55:24.313Z,40.10
2019-03-22T18:00:16.453Z,40.50
2019-03-22T18:05:08.677Z,40.90
2019-03-22T18:10:00.705Z,41.40
2019-03-22T18:14:52.735Z,42.00
2019-03-22T18:19:45.105Z,42.20
2019-03-22T18:24:37.309Z,43.30
2019-03-22T18:29:29.416Z,44.30
2019-03-22T18:34:21.777Z,45.20
2019-03-22T18:39:13.983Z,46.00
2019-03-22T18:44:09.769Z,46.80
2019-03-22T18:49:01.811Z,47.70
2019-03-22T18:53:55.043Z,48.30
2019-03-22T18:58:46.861Z,48.90
2019-03-22T19:03:38.945Z,49.20
2019-03-22T19:08:30.965Z,49.40
2019-03-22T19:13:31.909Z,50.40
2019-03-22T19:18:25.075Z,51.60
2019-03-22T19:23:16.809Z,52.30
2019-03-22T19:28:08.555Z,53.70
2019-03-22T19:33:06.317Z,54.50
2019-03-22T19:37:57.815Z,55.20
2019-03-22T19:42:49.528Z,55.90
2019-03-22T19:47:41.615Z,56.70
2019-03-22T19:52:33.593Z,57.70
2019-03-22T19:57:25.512Z,59.00
2019-03-22T20:02:18.210Z,61.20
2019-03-22T20:07:09.868Z,63.50
2019-03-22T20:12:01.933Z,66.20
2019-03-22T20:16:54.006Z,68.70
2019-03-22T20:21:45.968Z,71.10
2019-03-22T20:26:38.069Z,73.30
2019-03-22T20:31:29.888Z,75.10
2019-03-22T20:36:21.675Z,75.90
2019-03-22T20:41:13.455Z,76.10
2019-03-22T20:46:05.614Z,78.20
2019-03-22T20:50:57.891Z,79.90
2019-03-22T20:55:50.064Z,81.40
2019-03-22T21:00:42.830Z,81.70
2019-03-22T21:05:35.114Z,83.00
2019-03-22T21:10:29.013Z,84.10
2019-03-22T21:15:25.829Z,84.80
2019-03-22T21:20:16.774Z,85.90
2019-03-22T21:25:08.429Z,84.90
2019-03-22T21:30:00.823Z,85.80
2019-03-22T21:34:52.398Z,86.80
2019-03-22T21:39:44.543Z,88.30
2019-03-22T21:44:36.466Z,88.80
2019-03-22T21:49:30.905Z,90.30
2019-03-22T21:54:22.112Z,90.90
2019-03-22T21:59:14.208Z,90.50
2019-03-22T22:04:08.150Z,90.20
2019-03-22T22:08:59.885Z,89.30
2019-03-22T22:13:52.160Z,89.70
2019-03-22T22:18:44.213Z,90.50
2019-03-22T22:23:36.089Z,91.00
2019-03-22T22:28:27.674Z,91.10
2019-03-22T22:33:19.641Z,91.80
2019-03-22T22:38:11.422Z,92.00
2019-03-22T22:43:03.386Z,92.50
2019-03-22T22:47:55.054Z,93.00
2019-03-22T22:52:47.143Z,93.10
2019-03-22T22:57:39.198Z,92.60
2019-03-22T23:02:31.320Z,92.40
2019-03-22T23:07:23.567Z,92.30
2019-03-22T23:12:15.581Z,92.10
2019-03-22T23:17:07.794Z,91.90
2019-03-22T23:22:00.025Z,91.80
2019-03-22T23:26:52.141Z,91.90
2019-03-22T23:31:44.062Z,92.10
2019-03-22T23:36:36.043Z,92.20
2019-03-22T23:41:28.083Z,92.60
2019-03-22T23:46:20.009Z,92.90
2019-03-22T23:51:11.846Z,93.20
2019-03-22T23:56:03.865Z,93.50
